Tümü
Mauke Airport (Mauke (Akatoka Manava)) MUK Hava Durumu
|
Mauke (Akatoka Manava) (MUK / NCMK)
Açık
Hafif rüzgârlı |
|
28 °C |
There is no TAF data available at MUK or any nearby airports.
Yakın zamandaki MUK METAR geçmişi
| Date | Time (-10) | Flight Rules | Wind Dir. | Speed | Type | Height AGL (ft) | Visibility | Temp (°C) | Temp (°F) | Dew Point (°C) | Dew Point (°F) | Rel. Humid. | Pressure | Density Altitude | Remarks |
|---|---|---|---|---|---|---|---|---|---|---|---|---|---|---|---|
| 08-May | 16:00 | n/a | 90° | 6 kt | Missing | 28° | 82° | 25° | 77° | 84% | 1014 mb | 1.576 ft | |||
| 08-May | 15:00 | n/a | 90° | 6 kt | Missing | 29° | 84° | 25° | 77° | 79% | 1014 mb | 1.696 ft | |||
| 08-May | 14:00 | n/a | 90° | 6 kt | Missing | 29° | 84° | 25° | 77° | 79% | 1015 mb | 1.666 ft | |||
| 08-May | 13:00 | n/a | 90° | 6 kt | Missing | 29° | 84° | 26° | 78° | 84% | 1015 mb | 1.666 ft | |||
| 08-May | 12:00 | n/a | 90° | 6 kt | Missing | 29° | 84° | 25° | 77° | 79% | 1016 mb | 1.637 ft | |||
| 08-May | 11:00 | n/a | 90° | 5 kt | Missing | 28° | 82° | 25° | 77° | 84% | 1018 mb | 1.457 ft | |||
| 08-May | 10:00 | n/a | 90° | 6 kt | Missing | 29° | 84° | 25° | 77° | 79% | 1018 mb | 1.577 ft | |||
| 08-May | 09:00 | n/a | 80° | 4 kt | Missing | 27° | 80° | 25° | 77° | 89% | 1017 mb | 1.367 ft | |||
| 08-May | 08:00 | n/a | 110° | 4 kt | Missing | 25° | 77° | 24° | 75° | 94% | 1017 mb | 1.127 ft | |||
| 08-May | 07:00 | n/a | 100° | 6 kt | Missing | 26° | 78° | 25° | 77° | 94% | 1016 mb | 1.277 ft | |||
| 08-May | 06:00 | n/a | 100° | 4 kt | Missing | 26° | 78° | 25° | 77° | 94% | 1015 mb | 1.306 ft | |||
| 08-May | 05:00 | n/a | 90° | 5 kt | Missing | 26° | 78° | 25° | 77° | 94% | 1015 mb | 1.306 ft | |||
| 08-May | 04:00 | n/a | 100° | 5 kt | Missing | 26° | 78° | 25° | 77° | 94% | 1015 mb | 1.306 ft | |||
| 08-May | 03:00 | n/a | 100° | 5 kt | Missing | 26° | 78° | 25° | 77° | 94% | 1016 mb | 1.277 ft | |||
| 08-May | 02:00 | n/a | 90° | 6 kt | Missing | 27° | 80° | 24° | 75° | 84% | 1016 mb | 1.397 ft | |||
| 08-May | 01:00 | n/a | 80° | 6 kt | Missing | 27° | 80° | 24° | 75° | 84% | 1016 mb | 1.397 ft | |||
| 08-May | 00:00 | n/a | 80° | 7 kt | Missing | 27° | 80° | 24° | 75° | 84% | 1016 mb | 1.397 ft | |||
| 07-May | 23:00 | n/a | 80° | 9 kt | Missing | 27° | 80° | 24° | 75° | 84% | 1016 mb | 1.397 ft | |||
| 07-May | 22:00 | n/a | 80° | 9 kt | Missing | 26° | 78° | 24° | 75° | 89% | 1016 mb | 1.277 ft | |||
| 07-May | 21:00 | n/a | 90° | 8 kt | Missing | 26° | 78° | 24° | 75° | 89% | 1016 mb | 1.277 ft | |||
| 07-May | 20:00 | n/a | 90° | 10 kt | Missing | 26° | 78° | 24° | 75° | 89% | 1015 mb | 1.306 ft | |||
| 07-May | 19:00 | n/a | 100° | 10 kt | Missing | 26° | 78° | 23° | 73° | 84% | 1015 mb | 1.306 ft | |||
| 07-May | 18:00 | n/a | 100° | 10 kt | Missing | 26° | 78° | 24° | 75° | 89% | 1015 mb | 1.306 ft | |||
| 07-May | 17:00 | n/a | 110° | 10 kt | Missing | 26° | 78° | 24° | 75° | 89% | 1015 mb | 1.306 ft |
Giriş
| Tarayıcınız desteklenmiyor. tarayıcınızı yükseltin |
